Time;durP1;ratioP1;P1;durP2;ratioP2;P2;SDS_P1;SDS_P2;PMS_P1;PMS_P2;Temp;Humidity;BMP_temperature;BMP_pressure;BME280_temperature;BME280_humidity;BME280_pressure;Samples;Min_cycle;Max_cycle;Signal;HPM_P1;HPM_P2
2021/08/19 00:01:16;;;;;;;9.80;3.85;;;17.20;64.30;;;;;;5065988;28;20048;-69
2021/08/19 00:03:52;;;;;;;11.13;4.38;;;17.30;64.10;;;;;;5065498;28;20115;-64
2021/08/19 00:06:22;;;;;;;6.75;3.90;;;17.40;64.20;;;;;;5062296;28;20024;-68
2021/08/19 00:09:20;;;;;;;6.75;3.58;;;17.50;63.60;;;;;;5066533;28;20511;-68
2021/08/19 00:12:09;;;;;;;10.82;4.50;;;17.50;63.90;;;;;;5064523;28;20017;-64
2021/08/19 00:14:38;;;;;;;10.43;4.85;;;17.60;63.60;;;;;;5060683;28;20383;-67
2021/08/19 00:17:08;;;;;;;10.35;4.28;;;17.80;63.40;;;;;;5066225;28;20431;-66
2021/08/19 00:19:41;;;;;;;10.20;4.30;;;17.80;63.10;;;;;;5065556;28;20032;-64
2021/08/19 00:22:24;;;;;;;10.02;4.20;;;18.00;62.70;;;;;;5065992;28;20024;-63
2021/08/19 00:25:21;;;;;;;7.95;3.60;;;18.10;62.50;;;;;;5061167;28;20040;-69
2021/08/19 00:28:01;;;;;;;9.13;3.83;;;18.10;62.30;;;;;;5064775;28;20023;-65
2021/08/19 00:30:50;;;;;;;8.07;4.15;;;18.30;61.80;;;;;;5066184;28;20054;-68
2021/08/19 00:33:21;;;;;;;6.72;3.67;;;18.30;61.80;;;;;;5063462;28;20563;-68
2021/08/19 00:35:49;;;;;;;8.23;4.03;;;18.40;61.50;;;;;;5060808;28;20189;-68
2021/08/19 00:38:17;;;;;;;7.70;3.65;;;18.50;61.50;;;;;;5064708;28;20031;-68
2021/08/19 00:40:58;;;;;;;9.23;3.90;;;18.60;61.30;;;;;;5066704;28;20135;-65
2021/08/19 00:43:30;;;;;;;8.13;4.07;;;18.70;60.80;;;;;;5065562;28;20043;-65
2021/08/19 00:46:43;;;;;;;10.02;4.47;;;18.80;60.70;;;;;;5062994;28;20118;-70
2021/08/19 00:49:20;;;;;;;6.55;3.08;;;18.90;60.00;;;;;;5063004;28;20089;-67
2021/08/19 00:52:16;;;;;;;9.00;3.92;;;19.00;60.30;;;;;;5063742;28;20040;-72
2021/08/19 00:55:15;;;;;;;6.72;3.78;;;19.10;60.10;;;;;;5054780;28;20049;-69
2021/08/19 00:58:01;;;;;;;6.78;3.65;;;19.10;59.90;;;;;;5066514;28;20033;-69
2021/08/19 01:00:29;;;;;;;9.52;4.15;;;19.20;59.90;;;;;;5064015;28;20038;-66
2021/08/19 01:02:58;;;;;;;8.90;3.83;;;19.20;59.40;;;;;;5065724;28;20494;-67
2021/08/19 01:05:38;;;;;;;9.07;3.78;;;19.30;59.40;;;;;;5061177;28;20021;-70
2021/08/19 01:08:07;;;;;;;8.20;3.75;;;19.20;59.70;;;;;;5065881;28;20048;-65
2021/08/19 01:10:34;;;;;;;10.02;3.58;;;19.30;59.50;;;;;;5066311;28;20104;-67
2021/08/19 01:13:01;;;;;;;7.65;3.65;;;19.30;59.60;;;;;;5066537;28;20052;-64
2021/08/19 01:15:29;;;;;;;13.18;4.45;;;19.40;59.50;;;;;;5060160;28;20032;-64
2021/08/19 01:18:01;;;;;;;9.50;4.35;;;19.70;58.70;;;;;;5067449;28;20036;-66
2021/08/19 01:20:32;;;;;;;11.90;4.30;;;19.90;58.70;;;;;;5064992;28;20479;-67
2021/08/19 01:23:01;;;;;;;10.75;4.03;;;20.00;57.50;;;;;;5065016;28;20132;-64
2021/08/19 01:25:29;;;;;;;12.38;4.80;;;20.10;57.70;;;;;;5057261;28;20075;-65
2021/08/19 01:27:57;;;;;;;12.45;4.07;;;20.20;56.90;;;;;;5065067;28;20041;-65
2021/08/19 01:30:26;;;;;;;11.60;4.10;;;20.10;57.80;;;;;;5066325;28;20510;-62
2021/08/19 01:32:54;;;;;;;12.90;4.47;;;20.00;58.30;;;;;;5069125;28;20025;-65
2021/08/19 01:35:28;;;;;;;9.35;4.60;;;20.10;57.40;;;;;;5064276;28;20029;-64
2021/08/19 01:37:55;;;;;;;9.60;4.43;;;20.20;56.80;;;;;;5069943;28;20554;-63
2021/08/19 01:40:22;;;;;;;11.55;4.07;;;20.40;57.40;;;;;;5068777;28;20119;-62
2021/08/19 01:42:50;;;;;;;9.95;4.15;;;20.60;56.70;;;;;;5069003;28;21381;-65
2021/08/19 01:45:18;;;;;;;14.73;4.30;;;20.70;56.30;;;;;;5065484;28;20449;-60
2021/08/19 01:47:47;;;;;;;9.40;3.72;;;20.70;55.60;;;;;;5066832;28;20382;-76
2021/08/19 01:50:15;;;;;;;12.80;4.40;;;20.40;56.70;;;;;;5064285;28;20033;-77
2021/08/19 01:52:46;;;;;;;11.98;4.13;;;20.00;58.70;;;;;;5071809;28;20021;-72
2021/08/19 01:55:13;;;;;;;7.43;3.60;;;19.90;59.40;;;;;;5071406;28;20025;-73
2021/08/19 01:57:41;;;;;;;12.32;3.97;;;19.90;59.30;;;;;;5069652;28;20041;-67
2021/08/19 02:00:15;;;;;;;9.05;4.18;;;19.80;59.60;;;;;;5072155;28;20059;-75
2021/08/19 02:02:43;;;;;;;7.40;4.18;;;20.00;59.50;;;;;;5071765;28;20036;-77
2021/08/19 02:05:20;;;;;;;10.20;3.30;;;20.00;59.30;;;;;;5072307;28;20017;-67
2021/08/19 02:07:48;;;;;;;10.05;3.67;;;20.10;59.30;;;;;;5071475;28;20059;-72
2021/08/19 02:10:18;;;;;;;8.25;3.60;;;20.30;58.50;;;;;;5071080;28;20483;-72
2021/08/19 02:12:45;;;;;;;10.18;3.58;;;20.60;58.20;;;;;;5070762;28;20029;-74
2021/08/19 02:15:17;;;;;;;5.90;3.20;;;20.50;58.00;;;;;;5071213;28;20016;-70
2021/08/19 02:17:45;;;;;;;11.30;3.97;;;20.60;58.00;;;;;;5070181;28;20372;-70
2021/08/19 02:20:15;;;;;;;8.88;2.97;;;20.80;57.00;;;;;;5070881;28;20502;-66
2021/08/19 02:22:42;;;;;;;13.85;3.65;;;20.90;57.00;;;;;;5070978;28;20024;-64
2021/08/19 02:25:10;;;;;;;10.55;3.33;;;21.00;56.70;;;;;;5069210;28;20035;-66
2021/08/19 02:27:38;;;;;;;8.77;3.45;;;21.10;56.60;;;;;;5070837;28;20025;-67
2021/08/19 02:30:06;;;;;;;7.85;3.05;;;21.10;56.90;;;;;;5070302;28;20036;-69
2021/08/19 02:32:33;;;;;;;7.53;3.03;;;21.10;56.70;;;;;;5070667;28;20028;-69
2021/08/19 02:35:00;;;;;;;10.75;3.38;;;21.20;56.30;;;;;;5070688;28;20463;-68
2021/08/19 02:37:28;;;;;;;9.93;3.70;;;21.20;56.70;;;;;;5070466;28;20093;-73
2021/08/19 02:39:56;;;;;;;9.07;2.88;;;21.20;56.10;;;;;;5070966;28;20028;-75
2021/08/19 02:42:24;;;;;;;5.43;2.97;;;21.20;56.70;;;;;;5070004;28;20017;-71
2021/08/19 02:44:51;;;;;;;7.07;3.35;;;21.30;56.60;;;;;;5071745;28;20098;-72
2021/08/19 02:47:19;;;;;;;5.07;2.78;;;21.40;55.90;;;;;;5071576;28;20366;-73
2021/08/19 02:49:47;;;;;;;7.28;3.20;;;21.40;56.20;;;;;;5070030;28;20120;-71
2021/08/19 02:52:15;;;;;;;4.90;3.05;;;21.40;56.30;;;;;;5072216;28;20039;-70
2021/08/19 02:54:43;;;;;;;5.70;3.10;;;21.50;56.20;;;;;;5070718;28;20442;-65
2021/08/19 02:57:10;;;;;;;5.13;2.40;;;21.40;56.60;;;;;;5071410;28;20036;-64
2021/08/19 02:59:37;;;;;;;4.90;2.60;;;21.50;56.00;;;;;;5070501;28;20036;-69
2021/08/19 03:02:05;;;;;;;6.57;2.65;;;21.40;56.40;;;;;;5070439;28;20090;-66
2021/08/19 03:04:33;;;;;;;5.68;2.72;;;21.60;56.00;;;;;;5070734;28;20375;-75
2021/08/19 03:07:00;;;;;;;8.80;3.53;;;21.50;56.30;;;;;;5069898;28;20029;-70
2021/08/19 03:09:28;;;;;;;4.30;2.90;;;21.70;56.10;;;;;;5070372;28;20052;-73
2021/08/19 03:11:55;;;;;;;7.68;3.22;;;21.70;55.10;;;;;;5070120;28;20108;-68
2021/08/19 03:14:23;;;;;;;8.88;3.60;;;21.80;55.30;;;;;;5069438;28;20047;-73
2021/08/19 03:16:50;;;;;;;9.13;3.63;;;22.00;54.40;;;;;;5067881;28;20395;-72
2021/08/19 03:19:18;;;;;;;15.98;3.58;;;22.00;54.90;;;;;;5069733;28;20025;-72
2021/08/19 03:21:45;;;;;;;7.18;3.70;;;22.10;55.20;;;;;;5069450;28;20024;-72
2021/08/19 03:24:13;;;;;;;8.35;3.83;;;21.90;55.30;;;;;;5069596;28;20021;-73
2021/08/19 03:26:50;;;;;;;5.60;3.15;;;21.80;55.90;;;;;;5069814;28;20054;-66
2021/08/19 03:29:17;;;;;;;7.35;4.18;;;21.90;55.90;;;;;;5068276;28;20031;-75
2021/08/19 03:31:44;;;;;;;8.25;4.20;;;21.90;55.10;;;;;;5074817;28;20075;-70
2021/08/19 03:34:12;;;;;;;8.48;3.85;;;22.00;55.40;;;;;;5073680;28;20043;-72
2021/08/19 03:36:39;;;;;;;6.68;3.33;;;22.10;55.50;;;;;;5073587;28;20082;-74
2021/08/19 03:39:07;;;;;;;8.25;4.00;;;22.10;55.70;;;;;;5077628;28;20052;-74
2021/08/19 03:41:34;;;;;;;11.52;4.15;;;22.00;55.40;;;;;;5077619;28;20062;-70
2021/08/19 03:44:02;;;;;;;10.25;3.70;;;22.20;55.30;;;;;;5074140;28;20029;-74
2021/08/19 03:46:29;;;;;;;12.95;4.47;;;22.30;55.30;;;;;;5072432;28;20089;-75
2021/08/19 03:48:59;;;;;;;20.83;6.97;;;22.20;55.60;;;;;;5073437;28;20490;-77
2021/08/19 03:51:29;;;;;;;36.00;19.13;;;22.40;54.10;;;;;;5073338;28;20025;-72
2021/08/19 03:53:58;;;;;;;39.92;16.77;;;22.40;54.50;;;;;;5066678;28;20032;-71
2021/08/19 03:56:30;;;;;;;69.10;31.85;;;22.30;54.70;;;;;;5068845;28;20382;-72
2021/08/19 03:58:57;;;;;;;118.97;60.92;;;22.20;54.90;;;;;;5070664;28;20039;-69
2021/08/19 04:01:25;;;;;;;130.43;63.30;;;22.10;55.30;;;;;;5069701;28;20074;-71
2021/08/19 04:03:53;;;;;;;135.15;67.50;;;21.90;56.20;;;;;;5070482;28;20021;-67
2021/08/19 04:06:20;;;;;;;139.25;66.00;;;21.90;56.80;;;;;;5071358;28;20031;-70
2021/08/19 04:08:47;;;;;;;172.43;83.00;;;21.90;57.00;;;;;;5070817;28;20032;-71
2021/08/19 04:11:15;;;;;;;159.85;82.00;;;21.90;57.00;;;;;;5071194;28;20028;-69
2021/08/19 04:13:42;;;;;;;106.88;54.83;;;21.90;56.90;;;;;;5069406;28;20032;-67
2021/08/19 04:16:10;;;;;;;109.05;57.92;;;22.10;56.30;;;;;;5071115;28;20017;-64
2021/08/19 04:18:37;;;;;;;138.88;73.05;;;22.20;55.80;;;;;;5070842;28;20031;-72
2021/08/19 04:21:05;;;;;;;170.43;84.38;;;22.20;56.30;;;;;;5070817;28;20371;-67
2021/08/19 04:23:32;;;;;;;106.35;51.88;;;22.10;56.60;;;;;;5067624;28;20074;-69
2021/08/19 04:26:00;;;;;;;117.78;60.05;;;22.20;56.60;;;;;;5067500;28;20419;-59
2021/08/19 04:28:27;;;;;;;68.65;35.08;;;22.20;56.30;;;;;;5070149;28;20404;-57
2021/08/19 04:30:54;;;;;;;120.20;57.28;;;22.10;56.20;;;;;;5070092;28;20041;-60
2021/08/19 04:33:26;;;;;;;68.88;36.88;;;22.10;56.80;;;;;;5065772;28;20103;-69
2021/08/19 04:35:54;;;;;;;75.22;41.08;;;22.00;56.70;;;;;;5068055;28;20458;-71
2021/08/19 04:38:21;;;;;;;78.70;41.47;;;21.90;56.70;;;;;;5070741;28;20028;-65
2021/08/19 04:40:49;;;;;;;72.63;37.20;;;21.90;57.10;;;;;;5067577;28;20471;-66
2021/08/19 04:43:16;;;;;;;86.72;43.15;;;21.90;57.40;;;;;;5065511;28;20024;-66
2021/08/19 04:45:44;;;;;;;88.07;48.78;;;21.90;57.40;;;;;;5071296;28;20043;-67
2021/08/19 04:48:11;;;;;;;91.90;48.42;;;21.80;57.70;;;;;;5072570;28;20047;-61
2021/08/19 04:50:38;;;;;;;70.25;37.22;;;21.90;57.40;;;;;;5072726;28;20082;-66
2021/08/19 04:53:06;;;;;;;72.38;36.25;;;22.00;57.00;;;;;;5073215;28;20020;-68
2021/08/19 04:55:33;;;;;;;62.65;34.25;;;22.00;56.90;;;;;;5072915;28;20024;-67
2021/08/19 04:58:01;;;;;;;85.22;41.03;;;22.00;57.10;;;;;;5072967;28;20035;-67
2021/08/19 05:00:29;;;;;;;81.25;45.40;;;22.00;57.40;;;;;;5073114;28;20024;-68
2021/08/19 05:02:56;;;;;;;76.40;41.55;;;22.00;57.20;;;;;;5073124;28;20487;-68
2021/08/19 05:05:24;;;;;;;68.28;39.60;;;22.20;56.80;;;;;;5073073;28;20029;-67
2021/08/19 05:07:51;;;;;;;59.10;32.78;;;22.30;56.70;;;;;;5075876;28;20383;-66
2021/08/19 05:10:19;;;;;;;79.75;42.03;;;22.30;56.20;;;;;;5076167;28;20025;-66
2021/08/19 05:12:46;;;;;;;79.60;42.03;;;22.20;56.20;;;;;;5077040;28;20483;-68
2021/08/19 05:15:13;;;;;;;58.90;30.08;;;22.10;56.50;;;;;;5076870;28;20027;-69
2021/08/19 05:17:41;;;;;;;76.00;40.88;;;22.10;56.00;;;;;;5076164;28;20115;-67
2021/08/19 05:20:09;;;;;;;56.85;29.92;;;21.90;57.30;;;;;;5076843;28;20028;-69
2021/08/19 05:22:36;;;;;;;59.70;30.25;;;21.80;57.40;;;;;;5076928;28;20119;-70
2021/08/19 05:25:04;;;;;;;49.00;27.65;;;21.90;57.70;;;;;;5076753;28;20058;-67
2021/08/19 05:27:31;;;;;;;52.90;29.10;;;21.80;57.30;;;;;;5076837;28;20020;-68
2021/08/19 05:29:59;;;;;;;50.22;26.70;;;21.70;58.20;;;;;;5076230;28;20045;-69
2021/08/19 05:32:26;;;;;;;57.95;29.40;;;21.70;58.80;;;;;;5075359;28;20025;-67
2021/08/19 05:34:54;;;;;;;69.40;39.38;;;21.60;58.90;;;;;;5076239;28;20528;-69
2021/08/19 05:37:21;;;;;;;63.08;32.95;;;21.60;58.50;;;;;;5076293;28;20032;-68
2021/08/19 05:39:49;;;;;;;58.97;31.05;;;21.70;58.40;;;;;;5074935;28;20078;-70
2021/08/19 05:42:16;;;;;;;62.08;32.75;;;21.60;57.90;;;;;;5076135;28;20107;-68
2021/08/19 05:44:44;;;;;;;58.40;28.98;;;21.50;57.80;;;;;;5076070;28;20074;-71
2021/08/19 05:47:11;;;;;;;50.88;26.77;;;21.30;58.30;;;;;;5076445;28;20024;-71
2021/08/19 05:49:41;;;;;;;55.35;31.65;;;21.20;59.80;;;;;;5076873;28;20027;-67
2021/08/19 05:52:11;;;;;;;56.97;31.15;;;21.10;60.20;;;;;;5076492;28;20030;-70
2021/08/19 05:54:39;;;;;;;44.97;23.23;;;21.10;60.80;;;;;;5076290;28;20107;-68
2021/08/19 05:57:08;;;;;;;55.60;31.88;;;21.10;60.90;;;;;;5076031;28;20328;-70
2021/08/19 05:59:35;;;;;;;51.00;29.25;;;21.20;60.10;;;;;;5076224;28;20451;-71
2021/08/19 06:02:03;;;;;;;56.75;31.40;;;21.20;59.70;;;;;;5075762;28;20032;-68
2021/08/19 06:04:30;;;;;;;51.40;30.13;;;21.20;59.80;;;;;;5076680;28;20044;-70
2021/08/19 06:06:58;;;;;;;54.80;29.10;;;21.30;59.80;;;;;;5079153;28;20012;-69
2021/08/19 06:09:25;;;;;;;47.58;26.92;;;21.30;59.80;;;;;;5076729;28;20308;-71
2021/08/19 06:11:53;;;;;;;48.97;28.70;;;21.30;59.90;;;;;;5075851;28;20488;-70
2021/08/19 06:14:20;;;;;;;48.28;25.85;;;21.30;59.40;;;;;;5076080;28;20028;-69
2021/08/19 06:16:47;;;;;;;46.00;26.90;;;21.40;59.50;;;;;;5075196;28;20029;-72
2021/08/19 06:19:15;;;;;;;49.33;24.38;;;21.40;59.30;;;;;;5075267;28;20026;-70
2021/08/19 06:21:42;;;;;;;38.17;21.38;;;21.40;59.40;;;;;;5075618;28;20028;-69
2021/08/19 06:24:09;;;;;;;44.30;25.00;;;21.40;59.30;;;;;;5075611;28;20036;-69
2021/08/19 06:26:37;;;;;;;46.92;26.25;;;21.30;58.60;;;;;;5075556;28;20020;-68
2021/08/19 06:29:04;;;;;;;50.00;22.55;;;21.20;58.90;;;;;;5075971;28;20502;-69
2021/08/19 06:31:31;;;;;;;39.90;24.05;;;21.00;60.00;;;;;;5075612;28;20098;-70
2021/08/19 06:33:59;;;;;;;37.25;20.30;;;20.90;60.40;;;;;;5075419;28;20023;-65
2021/08/19 06:36:26;;;;;;;40.45;22.75;;;20.80;60.70;;;;;;5075258;28;20028;-65
2021/08/19 06:38:54;;;;;;;33.47;19.48;;;20.70;60.80;;;;;;5075425;28;20108;-68
2021/08/19 06:41:23;;;;;;;38.97;22.45;;;20.60;61.20;;;;;;5075135;28;20100;-69
2021/08/19 06:43:51;;;;;;;39.70;20.85;;;20.40;61.60;;;;;;5069330;28;20039;-65
2021/08/19 06:46:22;;;;;;;32.90;20.13;;;20.30;62.30;;;;;;5071702;28;20066;-69
2021/08/19 06:48:49;;;;;;;42.30;22.88;;;20.20;62.70;;;;;;5069780;28;20032;-67
2021/08/19 06:51:16;;;;;;;36.83;20.02;;;20.10;62.60;;;;;;5069634;28;20077;-65
2021/08/19 06:53:44;;;;;;;43.60;22.65;;;20.00;63.10;;;;;;5071454;28;20127;-69
2021/08/19 06:56:12;;;;;;;25.15;16.27;;;19.90;63.30;;;;;;5069944;28;20099;-64
2021/08/19 06:58:39;;;;;;;35.55;20.08;;;19.90;63.90;;;;;;5073178;28;20013;-70
2021/08/19 07:01:07;;;;;;;36.25;19.83;;;19.70;64.00;;;;;;5073857;28;20017;-70
2021/08/19 07:03:34;;;;;;;35.60;20.63;;;19.70;64.60;;;;;;5074343;28;20085;-71
2021/08/19 07:06:02;;;;;;;35.53;18.33;;;19.60;64.80;;;;;;5068698;28;20024;-67
2021/08/19 07:08:29;;;;;;;32.60;17.23;;;19.60;65.80;;;;;;5073317;28;20428;-68
2021/08/19 07:10:56;;;;;;;32.58;16.90;;;19.50;65.50;;;;;;5071625;28;20024;-64
2021/08/19 07:13:24;;;;;;;34.03;18.15;;;19.50;66.50;;;;;;5072653;28;20028;-60
2021/08/19 07:15:51;;;;;;;34.17;16.23;;;19.50;66.00;;;;;;5067453;28;20050;-66
2021/08/19 07:18:19;;;;;;;31.27;17.20;;;19.40;66.80;;;;;;5070338;28;20032;-72
2021/08/19 07:20:46;;;;;;;32.83;16.98;;;19.40;67.30;;;;;;5072786;28;20021;-71
2021/08/19 07:23:14;;;;;;;31.90;18.23;;;19.30;67.40;;;;;;5072236;28;20107;-70
2021/08/19 07:25:41;;;;;;;28.63;16.38;;;19.30;67.60;;;;;;5067119;28;20934;-69
2021/08/19 07:28:09;;;;;;;30.88;16.95;;;19.30;67.60;;;;;;5072076;28;20056;-71
2021/08/19 07:30:50;;;;;;;32.75;19.95;;;19.20;67.80;;;;;;5071503;28;20117;-69
2021/08/19 07:33:20;;;;;;;30.63;17.42;;;19.10;67.50;;;;;;5071768;28;20020;-69
2021/08/19 07:35:49;;;;;;;27.13;16.33;;;19.10;68.20;;;;;;5066095;28;20506;-66
2021/08/19 07:38:18;;;;;;;32.10;19.27;;;19.10;67.90;;;;;;5072421;28;20024;-64
2021/08/19 07:41:14;;;;;;;31.17;14.90;;;19.10;67.80;;;;;;5072249;28;20021;-73
2021/08/19 07:43:45;;;;;;;29.33;15.73;;;19.00;68.20;;;;;;5069399;28;20356;-60
2021/08/19 07:46:13;;;;;;;29.98;15.75;;;19.00;68.30;;;;;;5066593;28;20535;-73
2021/08/19 07:48:40;;;;;;;23.70;14.15;;;19.00;69.10;;;;;;5072052;28;20032;-69
2021/08/19 07:51:08;;;;;;;27.55;15.27;;;19.00;69.30;;;;;;5068143;28;20012;-65
2021/08/19 07:53:35;;;;;;;27.58;15.68;;;19.00;69.20;;;;;;5071691;28;20510;-72
2021/08/19 07:56:03;;;;;;;21.88;13.75;;;19.00;69.70;;;;;;5063897;28;20036;-73
2021/08/19 07:58:30;;;;;;;24.20;14.15;;;19.00;69.30;;;;;;5071421;28;20025;-72
2021/08/19 08:00:58;;;;;;;23.33;13.60;;;19.00;69.30;;;;;;5071760;28;20017;-76
2021/08/19 08:03:26;;;;;;;23.67;13.80;;;18.90;69.40;;;;;;5071157;28;20033;-69
2021/08/19 08:05:54;;;;;;;21.25;14.30;;;18.90;69.70;;;;;;5066586;28;20111;-72
2021/08/19 08:08:21;;;;;;;26.15;14.68;;;18.90;70.20;;;;;;5072521;28;20021;-74
2021/08/19 08:10:48;;;;;;;24.38;13.30;;;18.80;70.20;;;;;;5071955;28;20021;-68
2021/08/19 08:13:17;;;;;;;26.13;14.20;;;18.80;69.60;;;;;;5071221;28;20020;-71
2021/08/19 08:15:44;;;;;;;27.58;14.23;;;18.80;69.50;;;;;;5066878;28;20112;-71
2021/08/19 08:18:18;;;;;;;28.35;13.70;;;18.80;70.10;;;;;;5068349;28;20048;-72
2021/08/19 08:21:10;;;;;;;;;;;;;;;;;;;;;
2021/08/19 08:24:04;;;;;;;20.17;12.43;;;18.80;70.60;;;;;;5069420;28;20033;-72
2021/08/19 08:26:31;;;;;;;25.05;13.95;;;18.70;70.60;;;;;;5066551;28;20070;-66
2021/08/19 08:29:02;;;;;;;22.80;13.23;;;18.70;71.10;;;;;;5071771;28;20078;-75
2021/08/19 08:31:34;;;;;;;23.27;13.07;;;18.60;70.30;;;;;;5070919;28;20505;-68
2021/08/19 08:34:01;;;;;;;23.15;13.32;;;18.60;71.20;;;;;;5070914;28;20044;-69
2021/08/19 08:36:28;;;;;;;21.40;12.38;;;18.60;70.20;;;;;;5066673;28;20040;-67
2021/08/19 08:38:56;;;;;;;23.80;12.07;;;18.50;70.30;;;;;;5070963;28;20029;-73
2021/08/19 08:41:24;;;;;;;22.75;12.25;;;18.50;70.70;;;;;;5070420;28;20032;-68
2021/08/19 08:43:53;;;;;;;19.15;12.32;;;18.50;71.30;;;;;;5070307;28;20498;-70
2021/08/19 08:46:26;;;;;;;20.35;11.85;;;18.50;70.90;;;;;;5063780;28;20028;-71
2021/08/19 08:48:58;;;;;;;21.38;12.15;;;18.50;70.80;;;;;;5071060;28;20101;-70
2021/08/19 08:51:27;;;;;;;19.95;12.32;;;18.50;71.20;;;;;;5068375;28;20017;-69
2021/08/19 08:53:54;;;;;;;23.23;11.55;;;18.50;70.80;;;;;;5066886;28;20056;-70
2021/08/19 08:56:21;;;;;;;22.25;11.90;;;18.40;71.80;;;;;;5063080;28;20045;-66
2021/08/19 08:58:49;;;;;;;18.02;11.25;;;18.40;71.00;;;;;;5068532;28;20455;-73
2021/08/19 09:01:16;;;;;;;22.02;11.85;;;18.40;71.40;;;;;;5067463;28;20051;-68
2021/08/19 09:03:44;;;;;;;19.38;11.95;;;18.40;71.30;;;;;;5070798;28;20027;-70
2021/08/19 09:06:11;;;;;;;18.17;11.45;;;18.40;70.50;;;;;;5062532;28;20024;-69
2021/08/19 09:08:50;;;;;;;25.73;11.55;;;18.40;70.90;;;;;;5072916;28;20067;-71
2021/08/19 09:11:27;;;;;;;23.10;13.00;;;18.30;72.10;;;;;;5067259;28;20133;-71
2021/08/19 09:14:21;;;;;;;21.70;12.15;;;18.30;71.30;;;;;;5069806;28;20024;-74
2021/08/19 09:16:49;;;;;;;20.05;11.52;;;18.30;71.50;;;;;;5070639;28;20032;-70
2021/08/19 09:19:19;;;;;;;19.85;12.13;;;18.30;72.50;;;;;;5068978;28;20094;-72
2021/08/19 09:21:50;;;;;;;17.63;10.18;;;18.20;72.00;;;;;;5068186;28;20032;-73
2021/08/19 09:24:21;;;;;;;18.45;10.73;;;18.20;73.00;;;;;;5068029;28;20059;-72
2021/08/19 09:26:50;;;;;;;23.42;11.05;;;18.20;72.30;;;;;;5069066;28;20032;-71
2021/08/19 09:29:31;;;;;;;18.67;10.52;;;18.20;72.70;;;;;;5068687;28;20028;-72
2021/08/19 09:32:19;;;;;;;18.40;10.43;;;18.20;73.10;;;;;;5067486;28;20070;-70
2021/08/19 09:34:49;;;;;;;15.98;10.30;;;18.10;73.60;;;;;;5069357;28;20029;-72
2021/08/19 09:37:19;;;;;;;18.90;9.77;;;18.10;73.40;;;;;;5069413;28;20029;-72
2021/08/19 09:40:00;;;;;;;18.98;10.32;;;18.10;73.40;;;;;;5069059;28;20124;-74
2021/08/19 09:42:38;;;;;;;17.27;9.98;;;18.10;73.40;;;;;;5069456;28;20064;-72
2021/08/19 09:45:28;;;;;;;16.20;9.75;;;18.10;73.40;;;;;;5069472;28;20033;-73
2021/08/19 09:48:16;;;;;;;16.20;9.75;;;18.00;74.60;;;;;;5067473;28;20028;-71
2021/08/19 09:50:47;;;;;;;16.65;9.60;;;18.00;73.70;;;;;;5069110;28;20032;-73
2021/08/19 09:53:38;;;;;;;14.35;8.65;;;18.00;73.30;;;;;;5073728;28;20033;-72
2021/08/19 09:56:09;;;;;;;14.60;8.63;;;18.00;73.90;;;;;;5072462;28;20028;-70
2021/08/19 09:58:37;;;;;;;16.95;9.27;;;18.00;73.50;;;;;;5071152;28;20159;-73
2021/08/19 10:01:04;;;;;;;13.10;8.20;;;18.00;73.60;;;;;;5074061;28;20020;-69
2021/08/19 10:03:36;;;;;;;14.50;8.35;;;18.00;73.40;;;;;;5077656;28;20052;-70
2021/08/19 10:06:04;;;;;;;15.68;8.55;;;17.90;73.30;;;;;;5068239;28;20028;-72
2021/08/19 10:08:32;;;;;;;12.88;8.77;;;18.00;73.50;;;;;;5076204;28;20021;-70
2021/08/19 10:11:02;;;;;;;15.18;8.68;;;17.90;73.90;;;;;;5073326;28;20039;-70
2021/08/19 10:13:33;;;;;;;15.43;7.72;;;18.00;74.20;;;;;;5068201;28;20106;-68
2021/08/19 10:16:01;;;;;;;15.55;8.90;;;18.00;74.10;;;;;;5073916;28;20029;-69
2021/08/19 10:18:34;;;;;;;13.13;8.27;;;18.00;73.80;;;;;;5073746;28;20025;-69
2021/08/19 10:21:15;;;;;;;16.55;8.88;;;17.90;74.30;;;;;;5075218;28;20040;-72
2021/08/19 10:23:46;;;;;;;11.23;7.05;;;18.00;74.40;;;;;;5069245;28;20475;-70
2021/08/19 10:26:20;;;;;;;15.75;7.38;;;18.00;74.20;;;;;;5075586;28;20025;-69
2021/08/19 10:29:03;;;;;;;14.10;7.68;;;18.00;74.20;;;;;;5074136;28;20361;-67
2021/08/19 10:31:47;;;;;;;14.13;8.30;;;18.00;74.80;;;;;;5074452;28;20048;-71
2021/08/19 10:34:26;;;;;;;11.23;6.70;;;18.00;73.80;;;;;;5069078;28;20023;-67
2021/08/19 10:36:55;;;;;;;12.30;6.90;;;18.00;74.10;;;;;;5071918;28;20040;-60
2021/08/19 10:39:23;;;;;;;12.80;7.10;;;18.00;73.90;;;;;;5073973;28;20029;-68
2021/08/19 10:42:00;;;;;;;10.13;6.93;;;18.00;75.00;;;;;;5073825;28;20032;-64
2021/08/19 10:44:50;;;;;;;13.85;7.07;;;18.00;73.80;;;;;;5066743;28;20028;-74
2021/08/19 10:47:37;;;;;;;9.98;6.72;;;18.00;74.20;;;;;;5041343;28;20055;-72
2021/08/19 10:50:32;;;;;;;13.02;6.85;;;18.00;73.90;;;;;;5071635;28;20084;-67
2021/08/19 10:53:21;;;;;;;12.40;7.05;;;18.00;74.20;;;;;;5067579;28;20032;-73
2021/08/19 10:55:53;;;;;;;12.05;6.30;;;18.00;73.60;;;;;;5061759;28;21100;-71
2021/08/19 10:58:29;;;;;;;21.50;6.75;;;18.00;74.60;;;;;;5074294;28;20108;-68
2021/08/19 11:00:58;;;;;;;10.30;6.03;;;17.90;73.80;;;;;;5075320;28;20063;-67
2021/08/19 11:03:38;;;;;;;14.77;6.72;;;17.90;73.90;;;;;;5068813;28;20028;-68
2021/08/19 11:06:18;;;;;;;11.25;5.97;;;18.00;74.40;;;;;;5073844;28;20614;-74
2021/08/19 11:09:03;;;;;;;8.23;5.72;;;18.00;74.20;;;;;;5071407;28;20048;-71
2021/08/19 11:11:59;;;;;;;9.23;5.82;;;18.00;74.10;;;;;;5072761;28;20024;-70
2021/08/19 11:14:41;;;;;;;9.35;5.78;;;18.00;73.80;;;;;;5069826;28;20471;-68
2021/08/19 11:17:09;;;;;;;10.63;5.97;;;18.00;74.10;;;;;;5073477;28;20125;-72
2021/08/19 11:19:36;;;;;;;13.65;5.95;;;17.90;74.30;;;;;;5073654;28;20036;-70
2021/08/19 11:22:07;;;;;;;9.63;6.10;;;17.90;73.80;;;;;;5074145;28;20086;-70
2021/08/19 11:24:43;;;;;;;10.68;5.82;;;17.90;74.40;;;;;;5068977;28;20038;-71
2021/08/19 11:27:14;;;;;;;8.82;5.60;;;17.90;73.80;;;;;;5071172;28;20498;-70
2021/08/19 11:29:57;;;;;;;11.68;6.65;;;17.90;74.40;;;;;;5073729;28;20475;-72
2021/08/19 11:32:32;;;;;;;11.18;5.70;;;17.90;73.60;;;;;;5073313;28;20060;-71
2021/08/19 11:35:00;;;;;;;16.65;6.43;;;17.90;74.40;;;;;;5066809;28;20020;-71
2021/08/19 11:37:30;;;;;;;7.43;5.35;;;17.90;74.00;;;;;;5072386;28;20029;-70
2021/08/19 11:40:03;;;;;;;9.35;5.38;;;17.80;73.80;;;;;;5071326;28;20317;-64
2021/08/19 11:42:30;;;;;;;;;;;17.90;74.50;;;;;;5072609;28;20055;-70
2021/08/19 11:45:17;;;;;;;8.85;4.93;;;17.90;74.30;;;;;;5067679;28;19927;-67
2021/08/19 11:47:45;;;;;;;8.35;5.05;;;17.80;74.90;;;;;;5072193;28;20390;-68
2021/08/19 11:50:13;;;;;;;10.13;5.45;;;17.90;75.00;;;;;;5071749;28;20032;-70
2021/08/19 11:52:40;;;;;;;10.27;5.20;;;17.80;74.40;;;;;;5072151;28;20475;-69
2021/08/19 11:55:09;;;;;;;10.85;5.82;;;17.80;74.40;;;;;;5074516;28;20024;-61
2021/08/19 11:57:37;;;;;;;9.00;5.57;;;17.80;76.40;;;;;;5067022;28;20039;-67
2021/08/19 12:00:08;;;;;;;11.10;5.38;;;17.80;74.60;;;;;;5065455;28;20060;-68
2021/08/19 12:02:35;;;;;;;9.13;5.40;;;17.80;75.30;;;;;;5068906;28;20387;-67
2021/08/19 12:05:09;;;;;;;8.15;4.80;;;17.80;75.20;;;;;;5068726;28;20029;-72
2021/08/19 12:07:41;;;;;;;9.82;5.53;;;17.70;75.00;;;;;;5070052;28;20020;-68
2021/08/19 12:10:09;;;;;;;9.80;5.47;;;17.70;75.00;;;;;;5069360;28;20035;-68
2021/08/19 12:12:39;;;;;;;8.45;5.20;;;17.70;74.90;;;;;;5068060;28;20027;-68
2021/08/19 12:15:08;;;;;;;10.82;5.22;;;17.70;75.40;;;;;;5068373;28;20033;-67
2021/08/19 12:17:36;;;;;;;13.27;6.32;;;17.70;75.20;;;;;;5067426;28;20491;-63
2021/08/19 12:20:20;;;;;;;10.15;5.30;;;17.70;75.20;;;;;;5068692;28;20048;-68
2021/08/19 12:22:47;;;;;;;9.82;4.65;;;17.70;75.20;;;;;;5068296;28;20028;-68
2021/08/19 12:25:22;;;;;;;9.32;5.35;;;17.70;75.40;;;;;;5068446;28;20016;-71
2021/08/19 12:28:23;;;;;;;10.45;5.05;;;17.70;75.40;;;;;;5067985;28;20033;-69
2021/08/19 12:30:58;;;;;;;9.77;4.47;;;17.70;75.30;;;;;;5056656;28;20044;-66
2021/08/19 12:33:40;;;;;;;7.55;4.53;;;17.70;75.00;;;;;;5068216;28;20024;-63
2021/08/19 12:36:16;;;;;;;8.20;4.43;;;17.70;74.90;;;;;;5066569;28;20110;-71
2021/08/19 12:38:45;;;;;;;8.45;4.82;;;17.70;74.70;;;;;;5067830;28;20032;-61
2021/08/19 12:41:14;;;;;;;8.20;4.57;;;17.70;75.50;;;;;;5068274;28;21267;-71
2021/08/19 12:43:42;;;;;;;8.38;4.25;;;17.70;74.60;;;;;;5068120;28;20024;-70
2021/08/19 12:46:11;;;;;;;9.02;4.63;;;17.70;75.00;;;;;;5068282;28;20028;-66
2021/08/19 12:48:38;;;;;;;5.35;4.13;;;17.70;74.90;;;;;;5068341;28;20107;-68
2021/08/19 12:51:26;;;;;;;13.77;5.10;;;17.70;74.70;;;;;;5067796;28;20025;-71
2021/08/19 12:54:07;;;;;;;7.53;4.57;;;17.70;74.90;;;;;;5067972;28;20052;-70
2021/08/19 12:56:39;;;;;;;9.50;4.68;;;17.70;74.90;;;;;;5067832;28;20518;-63